ルサカ の空港の天気 - METARとTAF

ケネスカウンダ国際空港 ( FLKK / LUN ) - ザンビア ルサカ
飛行場実況気象(Metar)
観測時間07/17 11:00 CAT (07/17 09:00 UTC)
風向・風速東北東 7m/s
視程10km以上
天気現象
全天の4割程度の雲 雲底高度 760m
気温21℃
湿度35%
気圧1029hPa
METARFLKK 170900Z 07014KT 9999 SCT025 21/05 Q1029
過去の天気等 Google飛行場航空写真 Wunderground天気予報

過去48時間のMETAR

飛行場予報(TAF)
発表時間: 7/17 06:00 CAT (7/17 04:00 UTC)
予報対象時間: 17日8時 CAT ~ 18日14時 CAT
風向・風速東南東 4m/s
視程9000m
天気現象煙霧
なし
17日20時 CAT から
風向・風速不定 2m/s
視程10km以上
なし
TAF FLKK 170400Z 1706/1812 12008KT 9000 HZ SKC
FM171800 VRB04KT CAVOK